createdAt,value
2023-05-07T00:01:51.172Z,100936.54
2023-05-07T00:04:18.325Z,100937.58
2023-05-07T00:06:45.452Z,100941.61
2023-05-07T00:09:12.471Z,100939.83
2023-05-07T00:11:39.503Z,100940.50
2023-05-07T00:14:07.012Z,100933.87
2023-05-07T00:16:34.263Z,100938.23
2023-05-07T00:19:01.271Z,100938.83
2023-05-07T00:21:28.386Z,100937.44
2023-05-07T00:23:55.390Z,100934.39
2023-05-07T00:26:22.925Z,100935.71
2023-05-07T00:28:50.022Z,100938.59
2023-05-07T00:31:16.997Z,100938.73
2023-05-07T00:33:43.957Z,100942.91
2023-05-07T00:36:11.092Z,100946.05
2023-05-07T00:38:38.130Z,100945.80
2023-05-07T00:41:05.886Z,100943.73
2023-05-07T00:43:33.218Z,100948.01
2023-05-07T00:46:00.382Z,100949.92
2023-05-07T00:48:27.577Z,100949.64
2023-05-07T00:50:55.408Z,100944.67
2023-05-07T00:53:22.472Z,100945.64
2023-05-07T00:55:50.008Z,100946.09
2023-05-07T00:58:17.465Z,100950.93
2023-05-07T01:00:44.392Z,100951.70
2023-05-07T01:03:11.393Z,100953.68
2023-05-07T01:05:39.253Z,100954.17
2023-05-07T01:08:06.936Z,100953.80
2023-05-07T01:10:34.082Z,100952.39
2023-05-07T01:13:02.056Z,100951.50
2023-05-07T01:15:29.176Z,100957.10
2023-05-07T01:17:56.734Z,100953.87
2023-05-07T01:20:24.072Z,100961.96
2023-05-07T01:22:51.090Z,100966.90
2023-05-07T01:25:19.231Z,100966.73
2023-05-07T01:27:46.572Z,100969.31
2023-05-07T01:30:14.078Z,100967.66
2023-05-07T01:32:54.245Z,100964.80
2023-05-07T01:35:28.404Z,100965.20
2023-05-07T01:37:55.843Z,100960.02
2023-05-07T01:40:23.965Z,100956.60
2023-05-07T01:42:51.659Z,100961.29
2023-05-07T01:45:18.773Z,100963.12
2023-05-07T01:47:46.730Z,100967.16
2023-05-07T01:50:16.482Z,100968.01
2023-05-07T01:52:44.147Z,100967.18
2023-05-07T01:55:11.659Z,100968.22
2023-05-07T01:57:38.631Z,100966.37
2023-05-07T02:00:06.374Z,100966.33
2023-05-07T02:02:33.709Z,100964.59
2023-05-07T02:05:02.114Z,100961.77
2023-05-07T02:07:29.093Z,100961.87
2023-05-07T02:09:56.067Z,100963.54
2023-05-07T02:12:23.748Z,100964.84
2023-05-07T02:14:50.785Z,100963.48
2023-05-07T02:17:17.724Z,100962.36
2023-05-07T02:19:44.913Z,100960.05
2023-05-07T02:22:11.965Z,100961.66
2023-05-07T02:24:38.977Z,100964.73
2023-05-07T02:27:05.957Z,100968.00
2023-05-07T02:29:33.013Z,100967.65
2023-05-07T02:32:00.176Z,100971.63
2023-05-07T02:34:27.497Z,100973.42
2023-05-07T02:36:54.490Z,100976.44
2023-05-07T02:39:21.532Z,100978.88
2023-05-07T02:41:48.460Z,100981.00
2023-05-07T02:44:15.432Z,100978.48
2023-05-07T02:46:42.417Z,100982.86
2023-05-07T02:49:09.379Z,100983.89
2023-05-07T02:51:36.427Z,100985.13
2023-05-07T02:54:03.418Z,100985.16
2023-05-07T02:56:30.887Z,100984.11
2023-05-07T02:58:57.865Z,100986.61
2023-05-07T03:01:25.049Z,100985.83
2023-05-07T03:03:52.593Z,100983.98
2023-05-07T03:06:19.625Z,100990.61
2023-05-07T03:08:46.562Z,100992.89
2023-05-07T03:11:13.691Z,100992.44
2023-05-07T03:13:40.737Z,100991.74
2023-05-07T03:16:07.881Z,100994.71
2023-05-07T03:18:35.060Z,100997.45
2023-05-07T03:21:02.348Z,100995.80
2023-05-07T03:23:29.258Z,101000.55
2023-05-07T03:25:56.272Z,101002.08
2023-05-07T03:28:23.444Z,101003.73
2023-05-07T03:30:51.237Z,101005.06
2023-05-07T03:33:18.123Z,101006.41
2023-05-07T03:35:45.148Z,101005.87
2023-05-07T03:38:12.154Z,101013.23
2023-05-07T03:40:39.195Z,101018.80
2023-05-07T03:43:06.337Z,101021.45
2023-05-07T03:45:33.395Z,101017.17
2023-05-07T03:48:00.377Z,101020.72
2023-05-07T03:50:27.491Z,101027.71
2023-05-07T03:52:54.410Z,101026.05
2023-05-07T03:55:21.401Z,101027.34
2023-05-07T03:57:48.369Z,101029.08
2023-05-07T04:00:15.481Z,101037.52
2023-05-07T04:02:42.599Z,101029.09
2023-05-07T04:05:10.056Z,101031.84
2023-05-07T04:07:37.061Z,101033.83
2023-05-07T04:10:04.185Z,101036.06
2023-05-07T04:12:31.102Z,101043.15
2023-05-07T04:14:57.997Z,101047.45
2023-05-07T04:17:25.057Z,101048.19
2023-05-07T04:19:52.178Z,101051.23
2023-05-07T04:22:19.249Z,101054.42
2023-05-07T04:24:46.290Z,101059.21
2023-05-07T04:27:13.292Z,101056.71
2023-05-07T04:29:42.819Z,101057.22
2023-05-07T04:32:10.727Z,101059.98
2023-05-07T04:34:37.893Z,101063.05
2023-05-07T04:37:04.860Z,101059.70
2023-05-07T04:39:33.406Z,101064.52
2023-05-07T04:42:01.278Z,101068.52
2023-05-07T04:44:28.311Z,101074.96
2023-05-07T04:46:55.354Z,101076.08
2023-05-07T04:49:22.264Z,101081.85
2023-05-07T04:52:13.216Z,101082.27
2023-05-07T05:18:44.887Z,101103.00
2023-05-07T05:25:24.354Z,101112.63
2023-05-07T05:46:39.723Z,101119.97
2023-05-07T05:54:20.277Z,101124.39
2023-05-07T06:03:24.442Z,101142.05
2023-05-07T06:06:43.583Z,101139.20
2023-05-07T06:25:12.364Z,101147.90
2023-05-07T06:39:22.774Z,101151.95
2023-05-07T06:42:14.122Z,101152.73
2023-05-07T06:45:23.933Z,101146.47
2023-05-07T06:48:45.887Z,101151.33
2023-05-07T06:51:41.924Z,101153.77
2023-05-07T06:54:15.589Z,101153.55
2023-05-07T06:56:42.674Z,101156.63
2023-05-07T06:59:09.639Z,101161.52
2023-05-07T07:01:36.693Z,101160.26
2023-05-07T07:04:03.858Z,101161.55
2023-05-07T07:06:32.343Z,101167.22
2023-05-07T07:09:09.998Z,101168.82
2023-05-07T07:17:03.185Z,101176.77
2023-05-07T07:19:30.025Z,101178.42
2023-05-07T07:21:57.210Z,101180.95
2023-05-07T07:24:24.140Z,101184.36
2023-05-07T07:26:51.123Z,101187.05
2023-05-07T07:29:19.172Z,101188.48
2023-05-07T07:31:46.185Z,101189.66
2023-05-07T07:34:13.249Z,101191.86
2023-05-07T07:36:46.122Z,101198.26
2023-05-07T07:39:19.337Z,101203.37
2023-05-07T07:41:49.396Z,101204.84
2023-05-07T07:44:21.375Z,101207.07
2023-05-07T07:46:57.061Z,101206.00
2023-05-07T07:49:25.025Z,101205.29
2023-05-07T07:51:53.490Z,101206.34
2023-05-07T07:54:23.294Z,101203.88
2023-05-07T07:56:50.906Z,101203.20
2023-05-07T07:59:20.173Z,101209.20
2023-05-07T08:01:52.211Z,101208.48
2023-05-07T08:04:21.475Z,101207.33
2023-05-07T08:06:49.117Z,101210.21
2023-05-07T08:09:16.671Z,101213.08
2023-05-07T08:11:44.969Z,101212.84
2023-05-07T08:14:13.519Z,101218.46
2023-05-07T08:16:43.434Z,101217.40
2023-05-07T08:19:11.620Z,101222.13
2023-05-07T08:21:40.741Z,101226.46
2023-05-07T08:24:08.246Z,101224.98
2023-05-07T08:26:37.125Z,101226.11
2023-05-07T08:29:04.308Z,101223.55
2023-05-07T08:31:33.721Z,101221.16
2023-05-07T08:34:06.354Z,101223.52
2023-05-07T08:36:37.000Z,101226.83
2023-05-07T08:39:06.983Z,101229.84
2023-05-07T08:41:36.344Z,101235.46
2023-05-07T08:44:07.142Z,101235.54
2023-05-07T08:46:35.943Z,101240.38
2023-05-07T08:49:04.634Z,101240.13
2023-05-07T08:51:31.988Z,101241.27
2023-05-07T08:54:00.197Z,101245.70
2023-05-07T08:56:27.247Z,101251.33
2023-05-07T08:59:00.710Z,101256.08
2023-05-07T09:01:28.406Z,101258.98
2023-05-07T09:03:55.852Z,101259.70
2023-05-07T09:06:23.256Z,101264.19
2023-05-07T09:08:51.696Z,101264.36
2023-05-07T09:11:22.796Z,101267.77
2023-05-07T09:13:55.244Z,101270.52
2023-05-07T09:16:22.963Z,101270.80
2023-05-07T09:18:52.672Z,101265.38
2023-05-07T09:21:20.791Z,101268.77
2023-05-07T09:23:55.968Z,101270.39
2023-05-07T09:26:24.344Z,101275.94
2023-05-07T09:28:51.738Z,101276.89
2023-05-07T09:31:21.099Z,101283.64
2023-05-07T09:33:48.613Z,101279.17
2023-05-07T09:36:15.844Z,101279.90
2023-05-07T09:38:43.181Z,101281.63
2023-05-07T09:41:12.870Z,101289.14
2023-05-07T09:43:41.275Z,101284.15
2023-05-07T09:46:20.933Z,101293.47
2023-05-07T09:48:49.233Z,101293.14
2023-05-07T09:51:27.490Z,101289.50
2023-05-07T09:53:54.743Z,101288.95
2023-05-07T09:56:22.546Z,101289.31
2023-05-07T09:58:52.101Z,101291.92
2023-05-07T10:01:22.622Z,101296.65
2023-05-07T10:03:52.127Z,101301.61
2023-05-07T10:06:23.292Z,101302.56
2023-05-07T10:08:56.032Z,101298.80
2023-05-07T10:11:23.934Z,101306.99
2023-05-07T10:13:54.205Z,101308.35
2023-05-07T10:16:25.999Z,101309.39
2023-05-07T10:19:02.922Z,101312.29
2023-05-07T10:21:33.167Z,101316.64
2023-05-07T10:24:07.988Z,101322.48
2023-05-07T10:26:37.016Z,101321.46
2023-05-07T10:29:13.406Z,101323.00
2023-05-07T10:31:54.263Z,101319.35
2023-05-07T10:34:28.791Z,101323.69
2023-05-07T10:36:57.551Z,101320.38
2023-05-07T10:39:26.922Z,101319.42
2023-05-07T10:41:54.855Z,101323.68
2023-05-07T10:44:29.609Z,101322.63
2023-05-07T10:47:21.875Z,101323.33
2023-05-07T10:49:50.743Z,101329.97
2023-05-07T10:52:27.203Z,101335.45
2023-05-07T10:55:20.559Z,101334.84
2023-05-07T10:57:54.292Z,101335.54
2023-05-07T11:00:35.532Z,101342.09
2023-05-07T11:03:09.853Z,101344.04
2023-05-07T11:05:38.588Z,101340.52
2023-05-07T11:08:09.085Z,101344.91
2023-05-07T11:10:55.310Z,101341.52
2023-05-07T11:13:42.620Z,101341.91
2023-05-07T11:16:23.512Z,101342.27
2023-05-07T11:18:57.452Z,101345.23
2023-05-07T11:21:42.765Z,101345.41
2023-05-07T11:24:11.095Z,101344.11
2023-05-07T11:26:50.244Z,101348.56
2023-05-07T11:29:24.182Z,101352.56
2023-05-07T11:31:56.265Z,101354.33
2023-05-07T11:34:27.724Z,101353.07
2023-05-07T11:36:56.463Z,101353.42
2023-05-07T11:39:37.107Z,101352.86
2023-05-07T11:42:04.163Z,101356.88
2023-05-07T11:44:46.734Z,101355.46
2023-05-07T11:47:20.862Z,101356.55
2023-05-07T11:49:53.967Z,101353.44
2023-05-07T11:52:24.058Z,101352.30
2023-05-07T11:54:52.091Z,101355.16
2023-05-07T11:57:19.105Z,101353.27
2023-05-07T11:59:47.793Z,101354.33
2023-05-07T12:02:16.374Z,101358.30
2023-05-07T12:04:43.643Z,101357.14
2023-05-07T12:07:14.446Z,101356.00
2023-05-07T12:09:45.726Z,101355.16
2023-05-07T12:12:15.102Z,101352.73
2023-05-07T12:14:43.643Z,101351.67
2023-05-07T12:17:12.049Z,101351.76
2023-05-07T12:19:40.957Z,101354.14
2023-05-07T12:22:11.767Z,101358.96
2023-05-07T12:24:45.912Z,101360.54
2023-05-07T12:27:14.432Z,101363.76
2023-05-07T12:29:49.368Z,101367.08
2023-05-07T12:32:18.040Z,101368.52
2023-05-07T12:34:46.485Z,101371.65
2023-05-07T12:37:14.058Z,101373.85
2023-05-07T12:40:07.705Z,101377.88
2023-05-07T12:42:43.212Z,101371.50
2023-05-07T12:45:16.863Z,101369.66
2023-05-07T12:47:46.145Z,101370.79
2023-05-07T12:50:26.533Z,101370.12
2023-05-07T12:52:56.023Z,101369.86
2023-05-07T12:55:23.293Z,101373.55
2023-05-07T12:57:54.928Z,101373.69
2023-05-07T13:00:40.735Z,101374.50
2023-05-07T13:03:10.556Z,101376.05
2023-05-07T13:05:41.301Z,101377.86
2023-05-07T13:08:10.355Z,101377.18
2023-05-07T13:10:38.225Z,101374.07
2023-05-07T13:13:05.514Z,101369.40
2023-05-07T13:15:32.570Z,101367.30
2023-05-07T13:18:02.572Z,101366.79
2023-05-07T13:20:40.354Z,101366.08
2023-05-07T13:23:22.110Z,101369.15
2023-05-07T13:25:52.957Z,101370.72
2023-05-07T13:28:22.489Z,101372.77
2023-05-07T13:31:01.966Z,101368.73
2023-05-07T13:33:28.969Z,101371.35
2023-05-07T13:35:57.636Z,101373.48
2023-05-07T13:38:25.142Z,101373.09
2023-05-07T13:40:54.045Z,101371.56
2023-05-07T13:43:23.388Z,101371.65
2023-05-07T13:45:50.440Z,101370.86
2023-05-07T13:48:17.550Z,101370.88
2023-05-07T13:50:46.973Z,101367.61
2023-05-07T13:53:18.721Z,101363.59
2023-05-07T13:55:59.734Z,101362.28
2023-05-07T13:58:30.554Z,101365.55
2023-05-07T14:00:59.216Z,101365.03
2023-05-07T14:03:36.542Z,101365.94
2023-05-07T14:06:04.710Z,101366.28
2023-05-07T14:08:35.149Z,101359.64
2023-05-07T14:11:10.214Z,101360.55
2023-05-07T14:13:37.369Z,101362.80
2023-05-07T14:16:06.075Z,101367.65
2023-05-07T14:18:37.628Z,101370.11
2023-05-07T14:21:07.117Z,101371.63
2023-05-07T14:23:34.666Z,101372.83
2023-05-07T14:26:02.115Z,101373.91
2023-05-07T14:28:33.621Z,101377.17
2023-05-07T14:31:02.999Z,101378.46
2023-05-07T14:33:30.505Z,101375.87
2023-05-07T14:36:01.318Z,101376.40
2023-05-07T14:38:31.982Z,101376.46
2023-05-07T14:40:59.258Z,101376.33
2023-05-07T14:43:26.817Z,101374.95
2023-05-07T14:45:54.657Z,101375.52
2023-05-07T14:48:22.514Z,101375.66
2023-05-07T14:50:50.236Z,101374.27
2023-05-07T14:53:18.937Z,101380.44
2023-05-07T14:55:47.850Z,101382.29
2023-05-07T14:58:15.423Z,101378.80
2023-05-07T15:00:55.017Z,101376.83
2023-05-07T15:03:22.935Z,101375.39
2023-05-07T15:05:52.284Z,101381.05
2023-05-07T15:08:19.523Z,101382.02
2023-05-07T15:10:46.791Z,101382.21
2023-05-07T15:13:16.177Z,101380.95
2023-05-07T15:15:48.035Z,101379.10
2023-05-07T15:18:22.795Z,101381.46
2023-05-07T15:20:50.942Z,101381.02
2023-05-07T15:23:18.050Z,101383.84
2023-05-07T15:25:45.847Z,101385.07
2023-05-07T15:28:15.988Z,101388.98
2023-05-07T15:30:43.031Z,101387.52
2023-05-07T15:33:10.561Z,101388.02
2023-05-07T15:35:38.296Z,101385.79
2023-05-07T15:38:05.872Z,101388.25
2023-05-07T15:40:33.419Z,101390.58
2023-05-07T15:43:04.666Z,101390.69
2023-05-07T15:45:33.137Z,101392.13
2023-05-07T15:48:00.241Z,101393.81
2023-05-07T15:50:27.310Z,101391.14
2023-05-07T15:52:54.490Z,101392.31
2023-05-07T15:55:21.649Z,101391.73
2023-05-07T15:57:48.984Z,101385.45
2023-05-07T16:00:17.219Z,101385.38
2023-05-07T16:02:44.927Z,101389.23
2023-05-07T16:05:13.350Z,101387.21
2023-05-07T16:07:42.580Z,101389.84
2023-05-07T16:10:10.577Z,101389.41
2023-05-07T16:12:37.616Z,101387.55
2023-05-07T16:15:05.628Z,101387.25
2023-05-07T16:17:32.738Z,101387.43
2023-05-07T16:20:01.665Z,101384.73
2023-05-07T16:22:28.892Z,101386.55
2023-05-07T16:24:55.970Z,101385.81
2023-05-07T16:27:22.982Z,101383.81
2023-05-07T16:29:49.968Z,101387.00
2023-05-07T16:32:16.974Z,101389.34
2023-05-07T16:34:44.005Z,101390.79
2023-05-07T16:37:11.134Z,101387.96
2023-05-07T16:39:38.408Z,101386.00
2023-05-07T16:42:05.646Z,101388.73
2023-05-07T16:44:32.724Z,101394.13
2023-05-07T16:46:59.665Z,101394.50
2023-05-07T16:49:26.843Z,101397.63
2023-05-07T16:51:53.835Z,101397.64
2023-05-07T16:54:20.837Z,101394.13
2023-05-07T16:56:48.128Z,101395.80
2023-05-07T16:59:15.118Z,101400.96
2023-05-07T17:01:42.728Z,101403.08
2023-05-07T17:04:11.029Z,101399.77
2023-05-07T17:06:38.180Z,101402.88
2023-05-07T17:09:05.338Z,101399.73
2023-05-07T17:11:33.707Z,101402.55
2023-05-07T17:14:01.370Z,101405.17
2023-05-07T17:16:29.493Z,101404.63
2023-05-07T17:18:56.522Z,101404.87
2023-05-07T17:21:23.553Z,101404.02
2023-05-07T17:23:50.546Z,101407.61
2023-05-07T17:26:17.453Z,101409.00
2023-05-07T17:28:44.380Z,101410.85
2023-05-07T17:31:11.424Z,101413.39
2023-05-07T17:33:38.487Z,101418.61
2023-05-07T17:36:07.830Z,101422.48
2023-05-07T17:38:35.218Z,101428.99
2023-05-07T17:41:02.478Z,101426.96
2023-05-07T17:43:29.969Z,101430.03
2023-05-07T17:45:56.933Z,101436.02
2023-05-07T17:48:24.102Z,101443.52
2023-05-07T17:50:51.051Z,101441.50
2023-05-07T17:53:18.070Z,101443.88
2023-05-07T17:55:45.555Z,101439.36
2023-05-07T17:58:13.303Z,101438.83
2023-05-07T18:00:42.062Z,101441.48
2023-05-07T18:03:09.267Z,101447.08
2023-05-07T18:05:37.681Z,101451.88
2023-05-07T18:08:07.293Z,101449.66
2023-05-07T18:10:34.763Z,101453.05
2023-05-07T18:13:02.254Z,101459.30
2023-05-07T18:15:46.337Z,101462.09
2023-05-07T18:18:14.465Z,101466.02
2023-05-07T18:20:44.154Z,101467.84
2023-05-07T18:23:12.379Z,101470.77
2023-05-07T18:25:40.204Z,101471.19
2023-05-07T18:28:07.767Z,101476.18
2023-05-07T18:30:54.763Z,101482.43
2023-05-07T18:33:22.466Z,101484.60
2023-05-07T18:35:49.733Z,101487.41
2023-05-07T18:38:17.187Z,101486.84
2023-05-07T18:40:44.640Z,101491.65
2023-05-07T18:43:12.198Z,101495.88
2023-05-07T18:45:40.605Z,101495.52
2023-05-07T18:54:28.949Z,101497.17
2023-05-07T18:57:00.208Z,101505.48
2023-05-07T18:59:29.403Z,101509.45
2023-05-07T19:02:02.487Z,101510.36
2023-05-07T19:04:30.864Z,101516.00
2023-05-07T19:06:57.889Z,101517.56
2023-05-07T19:09:26.723Z,101518.17
2023-05-07T19:11:55.163Z,101521.77
2023-05-07T19:14:27.742Z,101523.84
2023-05-07T19:16:55.918Z,101521.86
2023-05-07T19:19:23.082Z,101525.30
2023-05-07T19:21:50.418Z,101528.36
2023-05-07T19:24:21.304Z,101530.63
2023-05-07T19:27:00.292Z,101531.83
2023-05-07T19:29:27.696Z,101536.23
2023-05-07T19:31:57.479Z,101539.80
2023-05-07T19:34:25.783Z,101542.30
2023-05-07T19:36:56.009Z,101545.80
2023-05-07T19:39:23.930Z,101552.27
2023-05-07T19:41:53.714Z,101555.58
2023-05-07T19:44:20.886Z,101560.05
2023-05-07T19:46:48.104Z,101561.23
2023-05-07T19:49:15.500Z,101563.96
2023-05-07T19:51:47.031Z,101563.10
2023-05-07T19:54:15.160Z,101567.23
2023-05-07T19:56:43.305Z,101570.97
2023-05-07T19:59:10.209Z,101567.67
2023-05-07T20:01:38.908Z,101568.23
2023-05-07T20:04:07.754Z,101568.15
2023-05-07T20:06:43.132Z,101567.27
2023-05-07T20:09:12.316Z,101572.33
2023-05-07T20:11:44.532Z,101573.36
2023-05-07T20:14:13.387Z,101574.50
2023-05-07T20:16:41.880Z,101572.64
2023-05-07T20:19:10.344Z,101575.52
2023-05-07T20:21:37.935Z,101579.23
2023-05-07T20:24:06.089Z,101579.70
2023-05-07T20:26:33.327Z,101580.41
2023-05-07T20:29:00.674Z,101584.48
2023-05-07T20:31:27.929Z,101585.88
2023-05-07T20:33:55.001Z,101584.52
2023-05-07T20:36:24.608Z,101590.83
2023-05-07T20:38:52.212Z,101592.05
2023-05-07T20:41:20.580Z,101592.13
2023-05-07T20:43:48.238Z,101593.90
2023-05-07T20:46:16.681Z,101593.09
2023-05-07T20:48:44.560Z,101596.52
2023-05-07T20:51:13.455Z,101596.86
2023-05-07T20:53:40.691Z,101602.88
2023-05-07T20:56:07.964Z,101603.40
2023-05-07T20:58:35.688Z,101604.55
2023-05-07T21:01:05.454Z,101610.25
2023-05-07T21:03:32.498Z,101610.39
2023-05-07T21:12:36.138Z,101619.13
2023-05-07T21:15:05.016Z,101625.05
2023-05-07T21:17:35.456Z,101626.08
2023-05-07T21:20:04.394Z,101629.89
2023-05-07T21:22:32.782Z,101630.58
2023-05-07T21:25:01.441Z,101634.19
2023-05-07T21:27:30.196Z,101635.35
2023-05-07T21:30:03.743Z,101638.18
2023-05-07T21:32:32.079Z,101640.92
2023-05-07T21:35:01.232Z,101644.55
2023-05-07T21:37:29.557Z,101645.02
2023-05-07T21:39:57.885Z,101655.81
2023-05-07T21:42:27.394Z,101656.96
2023-05-07T21:44:55.841Z,101659.36
2023-05-07T21:47:24.258Z,101659.34
2023-05-07T21:49:52.689Z,101663.84
2023-05-07T21:52:26.099Z,101667.23
2023-05-07T21:54:54.376Z,101667.25
2023-05-07T21:57:22.688Z,101667.25
2023-05-07T21:59:50.990Z,101671.41
2023-05-07T22:02:19.400Z,101671.05
2023-05-07T22:04:47.905Z,101668.78
2023-05-07T22:07:16.702Z,101671.93
2023-05-07T22:09:45.536Z,101670.77
2023-05-07T22:12:13.958Z,101667.71
2023-05-07T22:14:42.281Z,101668.85
2023-05-07T22:17:10.686Z,101668.86
2023-05-07T22:19:39.163Z,101672.05
2023-05-07T22:22:07.490Z,101672.87
2023-05-07T22:24:35.737Z,101678.47
2023-05-07T22:27:04.168Z,101675.91
2023-05-07T22:29:32.451Z,101676.52
2023-05-07T22:32:00.832Z,101676.91
2023-05-07T22:34:29.776Z,101674.37
2023-05-07T22:36:58.232Z,101671.95
2023-05-07T22:39:26.494Z,101670.41
2023-05-07T22:41:54.758Z,101667.39
2023-05-07T22:44:23.194Z,101664.42
2023-05-07T22:46:51.527Z,101667.79
2023-05-07T22:49:19.901Z,101665.80
2023-05-07T22:51:48.150Z,101673.14
2023-05-07T22:54:16.462Z,101674.65
2023-05-07T22:56:45.192Z,101673.80
2023-05-07T22:59:13.698Z,101675.83
2023-05-07T23:01:42.271Z,101674.52
2023-05-07T23:04:10.648Z,101677.08
2023-05-07T23:06:38.991Z,101672.79
2023-05-07T23:09:08.973Z,101671.40
2023-05-07T23:11:37.581Z,101675.15
2023-05-07T23:14:05.921Z,101672.45
2023-05-07T23:16:34.698Z,101670.55
2023-05-07T23:19:03.074Z,101670.25
2023-05-07T23:21:31.438Z,101670.52
2023-05-07T23:23:59.857Z,101668.52
2023-05-07T23:26:30.991Z,101672.64
2023-05-07T23:28:59.272Z,101676.42
2023-05-07T23:31:27.718Z,101675.56
2023-05-07T23:33:56.119Z,101675.64
2023-05-07T23:36:24.495Z,101673.33
2023-05-07T23:38:52.795Z,101672.14
2023-05-07T23:41:21.177Z,101670.41
2023-05-07T23:43:49.565Z,101670.80
2023-05-07T23:46:18.159Z,101668.40
2023-05-07T23:48:46.604Z,101669.01
2023-05-07T23:51:15.076Z,101666.99
2023-05-07T23:53:43.436Z,101666.82
2023-05-07T23:56:11.723Z,101663.95
2023-05-07T23:58:40.018Z,101663.91
